Time;durP1;ratioP1;P1;durP2;ratioP2;P2;SDS_P1;SDS_P2;PMS_P1;PMS_P2;Temp;Humidity;BMP_temperature;BMP_pressure;BME280_temperature;BME280_humidity;BME280_pressure;Samples;Min_cycle;Max_cycle;Signal;HPM_P1;HPM_P2
2022/09/13 06:17:08;;;;;;;11.25;10.25;;;27.90;99.90;;;;;;5000446;23;20509;-95
2022/09/13 06:19:44;;;;;;;10.30;9.50;;;28.40;99.90;;;;;;4874219;29;20367;-94
2022/09/13 06:22:34;;;;;;;11.02;9.68;;;28.20;99.90;;;;;;4999320;23;20027;-90
2022/09/13 06:25:45;;;;;;;11.75;9.60;;;28.30;99.90;;;;;;5098699;23;20044;-94
2022/09/13 06:31:47;;;;;;;;;;;;;;;;;;;;;
2022/09/13 07:09:48;;;;;;;10.73;9.88;;;27.30;99.90;;;;;;5060342;23;20093;-88
2022/09/13 07:12:14;;;;;;;;;;;27.40;99.90;;;;;;4870102;29;20040;-89
2022/09/13 07:14:40;;;;;;;11.07;10.20;;;27.80;99.90;;;;;;4872868;29;19971;-87
2022/09/13 07:17:07;;;;;;;11.38;10.57;;;28.00;99.90;;;;;;4854727;29;20383;-86
2022/09/13 07:19:33;;;;;;;11.57;10.77;;;28.00;99.90;;;;;;4852169;29;20025;-84
2022/09/13 07:22:00;;;;;;;12.15;11.23;;;28.00;99.90;;;;;;4867889;29;20029;-81
2022/09/13 07:24:26;;;;;;;13.35;12.13;;;27.80;99.90;;;;;;4852083;29;20178;-77
2022/09/13 07:26:53;;;;;;;12.35;11.27;;;27.90;99.90;;;;;;4882930;29;20399;-77
2022/09/13 07:29:22;;;;;;;12.60;11.85;;;27.70;99.90;;;;;;4883836;29;20459;-80
2022/09/13 07:31:54;;;;;;;13.60;12.57;;;28.10;99.90;;;;;;4883963;29;20025;-80
2022/09/13 07:34:26;;;;;;;14.13;13.13;;;28.30;99.90;;;;;;4867276;29;20037;-88
2022/09/13 07:36:53;;;;;;;13.32;12.52;;;28.50;99.90;;;;;;4852869;29;20037;-92
2022/09/13 07:39:20;;;;;;;13.13;12.20;;;28.70;99.90;;;;;;4852177;29;20049;-92
2022/09/13 07:41:47;;;;;;;13.65;12.45;;;28.20;99.90;;;;;;4853316;29;20033;-93
2022/09/13 07:44:14;;;;;;;13.38;12.15;;;28.00;99.90;;;;;;4852921;29;20104;-93
2022/09/13 07:46:42;;;;;;;12.50;11.80;;;27.20;99.90;;;;;;4853812;29;20033;-91
2022/09/13 07:49:18;;;;;;;12.82;11.93;;;26.60;99.90;;;;;;4853349;29;20052;-92
2022/09/13 07:51:45;;;;;;;12.98;12.15;;;26.30;99.90;;;;;;4852915;29;20049;-91
2022/09/13 07:54:14;;;;;;;12.98;12.00;;;26.10;99.90;;;;;;4853810;29;20029;-93
2022/09/13 07:56:42;;;;;;;13.55;12.68;;;25.90;99.90;;;;;;4851544;29;20041;-88
2022/09/13 07:59:16;;;;;;;13.60;12.80;;;25.90;99.90;;;;;;4850188;29;20037;-91
2022/09/13 08:04:40;;;;;;;14.00;13.25;;;27.20;99.90;;;;;;5744457;23;20093;-92
2022/09/13 13:57:11;;;;;;;15.40;14.40;;;27.00;99.90;;;;;;5379327;23;20052;-93
2022/09/13 14:00:26;;;;;;;15.20;14.13;;;26.70;99.90;;;;;;4882780;29;20140;-93
2022/09/13 14:03:20;;;;;;;14.90;14.00;;;26.50;99.90;;;;;;4897361;29;20041;-92
2022/09/13 14:06:20;;;;;;;14.82;13.93;;;26.50;99.90;;;;;;4878370;29;20097;-93
2022/09/13 14:09:42;;;;;;;15.77;14.63;;;26.50;99.90;;;;;;4855555;29;20065;-93
2022/09/13 18:58:02;;;;;;;12.43;11.38;;;21.80;99.90;;;;;;4996026;23;20055;-91
2022/09/13 19:00:31;;;;;;;11.52;10.57;;;21.70;99.90;;;;;;4895345;29;20032;-93
2022/09/13 19:02:58;;;;;;;11.23;10.35;;;21.70;99.90;;;;;;4890404;29;20032;-90
2022/09/13 19:05:26;;;;;;;11.15;10.45;;;21.70;99.90;;;;;;4889222;29;20036;-91
2022/09/13 19:07:53;;;;;;;11.55;10.80;;;21.70;99.90;;;;;;4904502;29;20437;-93
2022/09/13 19:10:22;;;;;;;11.05;10.43;;;21.60;99.90;;;;;;4888844;29;20032;-92
2022/09/13 19:12:49;;;;;;;11.05;10.35;;;21.50;99.90;;;;;;4904089;29;20032;-91
2022/09/13 19:15:15;;;;;;;11.63;10.70;;;21.50;99.90;;;;;;4888479;29;20072;-90
